sensor_id;sensor_type;location;lat;lon;timestamp;pressure;altitude;pressure_sealevel;temperature;humidity
17950;BME280;9100;48.700;9.316;2024-03-17T00:00:42;98417.5;;;9.97;100
17950;BME280;9100;48.700;9.316;2024-03-17T00:01:42;98415.09999999999;;;9.95;100
17950;BME280;9100;48.700;9.316;2024-03-17T00:02:42;98417.8;;;9.94;100
17950;BME280;9100;48.700;9.316;2024-03-17T00:03:38;98422.2;;;9.93;100
17950;BME280;9100;48.700;9.316;2024-03-17T00:03:42;98419.8;;;9.92;100
17950;BME280;9100;48.700;9.316;2024-03-17T00:04:42;98421.40000000001;;;9.93;100
17950;BME280;9100;48.700;9.316;2024-03-17T00:05:42;98423.7;;;9.94;100
17950;BME280;9100;48.700;9.316;2024-03-17T00:06:42;98426.3;;;9.94;100
17950;BME280;9100;48.700;9.316;2024-03-17T00:07:42;98425.40000000001;;;9.95;100
17950;BME280;9100;48.700;9.316;2024-03-17T00:08:38;98421.40000000001;;;9.93;100
17950;BME280;9100;48.700;9.316;2024-03-17T00:08:42;98424.90000000001;;;9.92;100
17950;BME280;9100;48.700;9.316;2024-03-17T00:09:42;98426.5;;;9.93;100
17950;BME280;9100;48.700;9.316;2024-03-17T00:10:42;98427.09999999999;;;9.95;100
17950;BME280;9100;48.700;9.316;2024-03-17T00:11:42;98426.2;;;9.96;100
17950;BME280;9100;48.700;9.316;2024-03-17T00:12:42;98429.7;;;9.95;100
17950;BME280;9100;48.700;9.316;2024-03-17T00:13:38;98427.4;;;9.92;100
17950;BME280;9100;48.700;9.316;2024-03-17T00:13:42;98425.8;;;9.91;100
17950;BME280;9100;48.700;9.316;2024-03-17T00:14:42;98430;;;9.92;100
17950;BME280;9100;48.700;9.316;2024-03-17T00:15:42;98417.2;;;9.92;100
17950;BME280;9100;48.700;9.316;2024-03-17T00:16:42;98419.8;;;9.92;100
17950;BME280;9100;48.700;9.316;2024-03-17T00:17:42;98418.1;;;9.91;100
17950;BME280;9100;48.700;9.316;2024-03-17T00:18:38;98416.6;;;9.9;100
17950;BME280;9100;48.700;9.316;2024-03-17T00:18:42;98422.6;;;9.89;100
17950;BME280;9100;48.700;9.316;2024-03-17T00:19:42;98415.59999999999;;;9.91;100
17950;BME280;9100;48.700;9.316;2024-03-17T00:20:42;98418.8;;;9.93;100
17950;BME280;9100;48.700;9.316;2024-03-17T00:21:42;98406.6;;;9.87;100
17950;BME280;9100;48.700;9.316;2024-03-17T00:22:42;98423.1;;;9.92;100
17950;BME280;9100;48.700;9.316;2024-03-17T00:23:38;98405.1;;;9.86;100
17950;BME280;9100;48.700;9.316;2024-03-17T00:23:42;98410.2;;;9.86;100
17950;BME280;9100;48.700;9.316;2024-03-17T00:24:42;98410.5;;;9.83;100
17950;BME280;9100;48.700;9.316;2024-03-17T00:25:42;98411.6;;;9.8;100
17950;BME280;9100;48.700;9.316;2024-03-17T00:26:42;98411.90000000001;;;9.77;100
17950;BME280;9100;48.700;9.316;2024-03-17T00:27:42;98412.2;;;9.74;100
17950;BME280;9100;48.700;9.316;2024-03-17T00:28:38;98406.4;;;9.72;100
17950;BME280;9100;48.700;9.316;2024-03-17T00:28:42;98410;;;9.71;100
17950;BME280;9100;48.700;9.316;2024-03-17T00:29:42;98403.09999999999;;;9.71;100
17950;BME280;9100;48.700;9.316;2024-03-17T00:30:43;98404.7;;;9.72;100
17950;BME280;9100;48.700;9.316;2024-03-17T00:31:43;98410.6;;;9.73;100
17950;BME280;9100;48.700;9.316;2024-03-17T00:32:43;98399.59999999999;;;9.72;100
17950;BME280;9100;48.700;9.316;2024-03-17T00:33:38;98403.09999999999;;;9.71;100
17950;BME280;9100;48.700;9.316;2024-03-17T00:33:43;98397;;;9.72;100
17950;BME280;9100;48.700;9.316;2024-03-17T00:34:43;98403.09999999999;;;9.71;100
17950;BME280;9100;48.700;9.316;2024-03-17T00:35:42;98405.6;;;9.71;100
17950;BME280;9100;48.700;9.316;2024-03-17T00:36:43;98404.1;;;9.7;100
17950;BME280;9100;48.700;9.316;2024-03-17T00:37:43;98406.6;;;9.7;100
17950;BME280;9100;48.700;9.316;2024-03-17T00:38:38;98408.4;;;9.7;100
17950;BME280;9100;48.700;9.316;2024-03-17T00:38:42;98405;;;9.69;100
17950;BME280;9100;48.700;9.316;2024-03-17T00:39:42;98404.9;;;9.71;100
17950;BME280;9100;48.700;9.316;2024-03-17T00:40:42;98399.59999999999;;;9.72;100
17950;BME280;9100;48.700;9.316;2024-03-17T00:41:43;98401.2;;;9.73;100
17950;BME280;9100;48.700;9.316;2024-03-17T00:42:42;98403.09999999999;;;9.71;100
17950;BME280;9100;48.700;9.316;2024-03-17T00:43:38;98398.29999999999;;;9.68;100
17950;BME280;9100;48.700;9.316;2024-03-17T00:43:42;98402.59999999999;;;9.68;100
17950;BME280;9100;48.700;9.316;2024-03-17T00:44:43;98400.3;;;9.65;100
17950;BME280;9100;48.700;9.316;2024-03-17T00:45:42;98400.5;;;9.63;100
17950;BME280;9100;48.700;9.316;2024-03-17T00:46:42;98403.2;;;9.62;100
17950;BME280;9100;48.700;9.316;2024-03-17T00:47:42;98396.5;;;9.61;100
17950;BME280;9100;48.700;9.316;2024-03-17T00:48:38;98393.3;;;9.59;100
17950;BME280;9100;48.700;9.316;2024-03-17T00:48:42;98394.1;;;9.59;100
17950;BME280;9100;48.700;9.316;2024-03-17T00:49:42;98390.59999999999;;;9.6;100
17950;BME280;9100;48.700;9.316;2024-03-17T00:50:42;98394.1;;;9.59;100
17950;BME280;9100;48.700;9.316;2024-03-17T00:51:42;98391.4;;;9.61;100
17950;BME280;9100;48.700;9.316;2024-03-17T00:52:42;98395.7;;;9.6;100
17950;BME280;9100;48.700;9.316;2024-03-17T00:53:38;98394.1;;;9.59;100
17950;BME280;9100;48.700;9.316;2024-03-17T00:53:42;98396.7;;;9.59;100
17950;BME280;9100;48.700;9.316;2024-03-17T00:54:43;98393.5;;;9.57;100
17950;BME280;9100;48.700;9.316;2024-03-17T00:55:42;98388.4;;;9.57;100
17950;BME280;9100;48.700;9.316;2024-03-17T00:56:42;98396.8;;;9.58;100
17950;BME280;9100;48.700;9.316;2024-03-17T00:57:42;98392.5;;;9.58;100
17950;BME280;9100;48.700;9.316;2024-03-17T00:58:38;98390.09999999999;;;9.57;100
17950;BME280;9100;48.700;9.316;2024-03-17T00:58:42;98390.09999999999;;;9.57;100
17950;BME280;9100;48.700;9.316;2024-03-17T00:59:42;98394.3;;;9.58;100
17950;BME280;9100;48.700;9.316;2024-03-17T01:00:42;98390.9;;;9.57;100
17950;BME280;9100;48.700;9.316;2024-03-17T01:01:42;98394.1;;;9.59;100
17950;BME280;9100;48.700;9.316;2024-03-17T01:02:43;98393.3;;;9.59;100
17950;BME280;9100;48.700;9.316;2024-03-17T01:03:38;98401.8;;;9.59;100
17950;BME280;9100;48.700;9.316;2024-03-17T01:03:42;98392.4;;;9.6;100
17950;BME280;9100;48.700;9.316;2024-03-17T01:04:43;98393.1;;;9.6;100
17950;BME280;9100;48.700;9.316;2024-03-17T01:05:42;98391.2;;;9.62;100
17950;BME280;9100;48.700;9.316;2024-03-17T01:06:43;98394.6;;;9.63;100
17950;BME280;9100;48.700;9.316;2024-03-17T01:07:42;98394.8;;;9.61;100
17950;BME280;9100;48.700;9.316;2024-03-17T01:08:38;98393.1;;;9.6;100
17950;BME280;9100;48.700;9.316;2024-03-17T01:08:42;98392.4;;;9.6;100
17950;BME280;9100;48.700;9.316;2024-03-17T01:09:42;98395.7;;;9.6;100
17950;BME280;9100;48.700;9.316;2024-03-17T01:10:43;98394.9;;;9.6;100
17950;BME280;9100;48.700;9.316;2024-03-17T01:11:43;98393.3;;;9.59;100
17950;BME280;9100;48.700;9.316;2024-03-17T01:12:42;98392.5;;;9.58;100
17950;BME280;9100;48.700;9.316;2024-03-17T01:13:38;98389.20000000001;;;9.58;100
17950;BME280;9100;48.700;9.316;2024-03-17T01:13:42;98391.7;;;9.58;100
17950;BME280;9100;48.700;9.316;2024-03-17T01:14:42;98397.6;;;9.58;100
17950;BME280;9100;48.700;9.316;2024-03-17T01:15:43;98388.4;;;9.57;100
17950;BME280;9100;48.700;9.316;2024-03-17T01:16:42;98387.40000000001;;;9.58;100
17950;BME280;9100;48.700;9.316;2024-03-17T01:17:42;98394.4;;;9.56;100
17950;BME280;9100;48.700;9.316;2024-03-17T01:18:38;98387.09999999999;;;9.53;100
17950;BME280;9100;48.700;9.316;2024-03-17T01:18:42;98387.09999999999;;;9.53;100
17950;BME280;9100;48.700;9.316;2024-03-17T01:19:42;98390.4;;;9.54;100
17950;BME280;9100;48.700;9.316;2024-03-17T01:20:42;98387.90000000001;;;9.54;100
17950;BME280;9100;48.700;9.316;2024-03-17T01:21:42;98384.40000000001;;;9.55;100
17950;BME280;9100;48.700;9.316;2024-03-17T01:22:42;98386.1;;;9.54;100
17950;BME280;9100;48.700;9.316;2024-03-17T01:23:38;98385.29999999999;;;9.54;100
17950;BME280;9100;48.700;9.316;2024-03-17T01:23:42;98380.4;;;9.52;100
17950;BME280;9100;48.700;9.316;2024-03-17T01:24:42;98387.7;;;9.55;100
17950;BME280;9100;48.700;9.316;2024-03-17T01:25:42;98385.79999999999;;;9.57;100
17950;BME280;9100;48.700;9.316;2024-03-17T01:26:42;98380.7;;;9.57;100
17950;BME280;9100;48.700;9.316;2024-03-17T01:27:42;98377.20000000001;;;9.58;100
17950;BME280;9100;48.700;9.316;2024-03-17T01:28:38;98384.2;;;9.56;100
17950;BME280;9100;48.700;9.316;2024-03-17T01:28:42;98379.1;;;9.56;100
17950;BME280;9100;48.700;9.316;2024-03-17T01:29:42;98389;;;9.59;100
17950;BME280;9100;48.700;9.316;2024-03-17T01:30:42;98383.1;;;9.59;100
17950;BME280;9100;48.700;9.316;2024-03-17T01:31:42;98377.20000000001;;;9.58;100
17950;BME280;9100;48.700;9.316;2024-03-17T01:32:43;98374.59999999999;;;9.58;100
17950;BME280;9100;48.700;9.316;2024-03-17T01:33:38;98380.7;;;9.57;100
17950;BME280;9100;48.700;9.316;2024-03-17T01:33:42;98381.5;;;9.58;100
17950;BME280;9100;48.700;9.316;2024-03-17T01:34:42;98378;;;9.59;100
17950;BME280;9100;48.700;9.316;2024-03-17T01:35:42;98382.3;;;9.58;100
17950;BME280;9100;48.700;9.316;2024-03-17T01:36:42;98375.59999999999;;;9.57;100
17950;BME280;9100;48.700;9.316;2024-03-17T01:37:42;98377.20000000001;;;9.58;100
17950;BME280;9100;48.700;9.316;2024-03-17T01:38:38;98372.2;;;9.57;100
17950;BME280;9100;48.700;9.316;2024-03-17T01:38:42;98382.3;;;9.58;100
17950;BME280;9100;48.700;9.316;2024-03-17T01:39:42;98372.1;;;9.58;100
17950;BME280;9100;48.700;9.316;2024-03-17T01:40:42;98367;;;9.58;100
17950;BME280;9100;48.700;9.316;2024-03-17T01:41:42;98367;;;9.58;100
17950;BME280;9100;48.700;9.316;2024-03-17T01:42:43;98362.7;;;9.59;100
17950;BME280;9100;48.700;9.316;2024-03-17T01:43:38;98366.2;;;9.58;100
17950;BME280;9100;48.700;9.316;2024-03-17T01:43:43;98366;;;9.59;100
17950;BME280;9100;48.700;9.316;2024-03-17T01:44:42;98356.6;;;9.6;100
17950;BME280;9100;48.700;9.316;2024-03-17T01:45:42;98356.6;;;9.6;100
17950;BME280;9100;48.700;9.316;2024-03-17T01:46:42;98359;;;9.61;100
17950;BME280;9100;48.700;9.316;2024-03-17T01:47:43;98356.6;;;9.6;100
17950;BME280;9100;48.700;9.316;2024-03-17T01:48:38;98351.70000000001;;;9.58;100
17950;BME280;9100;48.700;9.316;2024-03-17T01:48:42;98355.2;;;9.57;100
17950;BME280;9100;48.700;9.316;2024-03-17T01:49:42;98359.2;;;9.6;100
17950;BME280;9100;48.700;9.316;2024-03-17T01:50:42;98358.4;;;9.59;100
17950;BME280;9100;48.700;9.316;2024-03-17T01:51:42;98346.6;;;9.58;100
17950;BME280;9100;48.700;9.316;2024-03-17T01:52:42;98351.70000000001;;;9.58;100
17950;BME280;9100;48.700;9.316;2024-03-17T01:53:38;98350.40000000001;;;9.54;100
17950;BME280;9100;48.700;9.316;2024-03-17T01:53:43;98353.7;;;9.55;100
17950;BME280;9100;48.700;9.316;2024-03-17T01:54:43;98346.1;;;9.55;100
17950;BME280;9100;48.700;9.316;2024-03-17T01:55:43;98346.2;;;9.53;100
17950;BME280;9100;48.700;9.316;2024-03-17T01:56:43;98346.2;;;9.53;100
17950;BME280;9100;48.700;9.316;2024-03-17T01:57:43;98343.7;;;9.53;100
17950;BME280;9100;48.700;9.316;2024-03-17T01:58:38;98344.6;;;9.52;100
17950;BME280;9100;48.700;9.316;2024-03-17T01:58:42;98347.2;;;9.52;100
17950;BME280;9100;48.700;9.316;2024-03-17T01:59:42;98344.5;;;9.54;100
17950;BME280;9100;48.700;9.316;2024-03-17T02:00:42;98341.8;;;9.55;100
17950;BME280;9100;48.700;9.316;2024-03-17T02:01:42;98336.7;;;9.55;100
17950;BME280;9100;48.700;9.316;2024-03-17T02:02:43;98334.3;;;9.54;100
17950;BME280;9100;48.700;9.316;2024-03-17T02:03:38;98335.40000000001;;;9.51;100
17950;BME280;9100;48.700;9.316;2024-03-17T02:03:42;98332.8;;;9.51;100
17950;BME280;9100;48.700;9.316;2024-03-17T02:04:42;98330.3;;;9.51;100
17950;BME280;9100;48.700;9.316;2024-03-17T02:05:42;98332.8;;;9.51;100
17950;BME280;9100;48.700;9.316;2024-03-17T02:06:42;98330.3;;;9.51;100
17950;BME280;9100;48.700;9.316;2024-03-17T02:07:42;98330.3;;;9.51;100
17950;BME280;9100;48.700;9.316;2024-03-17T02:08:46;98331.2;;;9.5;100
17950;BME280;9100;48.700;9.316;2024-03-17T02:08:53;98333.6;;;9.52;100
17950;BME280;9100;48.700;9.316;2024-03-17T02:09:42;98331.9;;;9.52;100
17950;BME280;9100;48.700;9.316;2024-03-17T02:10:42;98331.9;;;9.52;100
17950;BME280;9100;48.700;9.316;2024-03-17T02:11:42;98326.59999999999;;;9.54;100
17950;BME280;9100;48.700;9.316;2024-03-17T02:12:42;98326.59999999999;;;9.54;100
17950;BME280;9100;48.700;9.316;2024-03-17T02:13:38;98328.3;;;9.53;100
17950;BME280;9100;48.700;9.316;2024-03-17T02:13:42;98324.8;;;9.54;100
17950;BME280;9100;48.700;9.316;2024-03-17T02:14:43;98324.5;;;9.57;100
17950;BME280;9100;48.700;9.316;2024-03-17T02:15:43;98327.09999999999;;;9.57;100
17950;BME280;9100;48.700;9.316;2024-03-17T02:16:43;98329.6;;;9.57;100
17950;BME280;9100;48.700;9.316;2024-03-17T02:17:42;98326.5;;;9.55;100
17950;BME280;9100;48.700;9.316;2024-03-17T02:18:38;98328.3;;;9.53;100
17950;BME280;9100;48.700;9.316;2024-03-17T02:18:42;98328.3;;;9.53;100
17950;BME280;9100;48.700;9.316;2024-03-17T02:19:42;98320.7;;;9.53;100
17950;BME280;9100;48.700;9.316;2024-03-17T02:20:42;98319.7;;;9.54;100
17950;BME280;9100;48.700;9.316;2024-03-17T02:21:42;98318.1;;;9.53;100
17950;BME280;9100;48.700;9.316;2024-03-17T02:22:43;98316.6;;;9.52;100
17950;BME280;9100;48.700;9.316;2024-03-17T02:23:38;98309;;;9.51;100
17950;BME280;9100;48.700;9.316;2024-03-17T02:23:42;98311.6;;;9.51;100
17950;BME280;9100;48.700;9.316;2024-03-17T02:24:42;98317.5;;;9.51;100
17950;BME280;9100;48.700;9.316;2024-03-17T02:25:42;98316.09999999999;;;9.49;100
17950;BME280;9100;48.700;9.316;2024-03-17T02:26:42;98320.4;;;9.48;100
17950;BME280;9100;48.700;9.316;2024-03-17T02:27:43;98312;;;9.46;100
17950;BME280;9100;48.700;9.316;2024-03-17T02:28:38;98312;;;9.46;100
17950;BME280;9100;48.700;9.316;2024-03-17T02:28:43;98313.8;;;9.46;100
17950;BME280;9100;48.700;9.316;2024-03-17T02:29:42;98309.5;;;9.46;100
17950;BME280;9100;48.700;9.316;2024-03-17T02:30:42;98312.90000000001;;;9.47;100
17950;BME280;9100;48.700;9.316;2024-03-17T02:31:42;98313.7;;;9.47;100
17950;BME280;9100;48.700;9.316;2024-03-17T02:32:43;98310.5;;;9.45;100
17950;BME280;9100;48.700;9.316;2024-03-17T02:33:38;98299;;;9.41;100
17950;BME280;9100;48.700;9.316;2024-03-17T02:33:43;98301.5;;;9.41;100
17950;BME280;9100;48.700;9.316;2024-03-17T02:34:42;98294.8;;;9.4;100
17950;BME280;9100;48.700;9.316;2024-03-17T02:35:43;98295.4;;;9.42;100
17950;BME280;9100;48.700;9.316;2024-03-17T02:36:42;98298;;;9.42;100
17950;BME280;9100;48.700;9.316;2024-03-17T02:37:42;98293.9;;;9.41;100
17950;BME280;9100;48.700;9.316;2024-03-17T02:38:38;98299;;;9.41;100
17950;BME280;9100;48.700;9.316;2024-03-17T02:38:42;98301.5;;;9.41;100
17950;BME280;9100;48.700;9.316;2024-03-17T02:39:43;98293.9;;;9.41;100
17950;BME280;9100;48.700;9.316;2024-03-17T02:40:43;98302.5;;;9.4;100
17950;BME280;9100;48.700;9.316;2024-03-17T02:41:43;98302.5;;;9.4;100
17950;BME280;9100;48.700;9.316;2024-03-17T02:42:42;98300.7;;;9.41;100
17950;BME280;9100;48.700;9.316;2024-03-17T02:43:38;98303.4;;;9.39;100
17950;BME280;9100;48.700;9.316;2024-03-17T02:43:43;98301.70000000001;;;9.4;100
17950;BME280;9100;48.700;9.316;2024-03-17T02:44:43;98300.9;;;9.39;100
17950;BME280;9100;48.700;9.316;2024-03-17T02:45:42;98303.4;;;9.39;100
17950;BME280;9100;48.700;9.316;2024-03-17T02:46:42;98306.3;;;9.36;100
17950;BME280;9100;48.700;9.316;2024-03-17T02:47:42;98302.09999999999;;;9.35;100
17950;BME280;9100;48.700;9.316;2024-03-17T02:48:38;98304.2;;;9.32;100
17950;BME280;9100;48.700;9.316;2024-03-17T02:48:43;98300.8;;;9.31;100
17950;BME280;9100;48.700;9.316;2024-03-17T02:49:43;98297.5;;;9.31;100
17950;BME280;9100;48.700;9.316;2024-03-17T02:50:43;98295.6;;;9.33;100
17950;BME280;9100;48.700;9.316;2024-03-17T02:51:43;98302.59999999999;;;9.31;100
17950;BME280;9100;48.700;9.316;2024-03-17T02:52:42;98297.7;;;9.29;100
17950;BME280;9100;48.700;9.316;2024-03-17T02:53:38;98287.59999999999;;;9.28;100
17950;BME280;9100;48.700;9.316;2024-03-17T02:53:43;98291.09999999999;;;9.27;100
17950;BME280;9100;48.700;9.316;2024-03-17T02:54:42;98293.5;;;9.28;100
17950;BME280;9100;48.700;9.316;2024-03-17T02:55:43;98291.9;;;9.27;100
17950;BME280;9100;48.700;9.316;2024-03-17T02:56:43;98290.3;;;9.26;100
17950;BME280;9100;48.700;9.316;2024-03-17T02:57:43;98289.3;;;9.27;100
17950;BME280;9100;48.700;9.316;2024-03-17T02:58:38;98298;;;9.26;100
17950;BME280;9100;48.700;9.316;2024-03-17T02:58:43;98289.3;;;9.27;100
17950;BME280;9100;48.700;9.316;2024-03-17T02:59:42;98290.9;;;9.28;100
17950;BME280;9100;48.700;9.316;2024-03-17T03:00:43;98291.4;;;9.23;100
17950;BME280;9100;48.700;9.316;2024-03-17T03:01:43;98292.5;;;9.21;100
17950;BME280;9100;48.700;9.316;2024-03-17T03:02:43;98291.09999999999;;;9.18;100
17950;BME280;9100;48.700;9.316;2024-03-17T03:03:38;98285.5;;;9.15;100
17950;BME280;9100;48.700;9.316;2024-03-17T03:03:42;98287.2;;;9.14;100
17950;BME280;9100;48.700;9.316;2024-03-17T03:04:43;98289.09999999999;;;9.12;100
17950;BME280;9100;48.700;9.316;2024-03-17T03:05:42;98292.8;;;9.1;100
17950;BME280;9100;48.700;9.316;2024-03-17T03:06:42;98289.59999999999;;;9.08;100
17950;BME280;9100;48.700;9.316;2024-03-17T03:07:43;98283.8;;;9.06;100
17950;BME280;9100;48.700;9.316;2024-03-17T03:08:38;98284.79999999999;;;9.05;100
17950;BME280;9100;48.700;9.316;2024-03-17T03:08:42;98288.9;;;9.06;100
17950;BME280;9100;48.700;9.316;2024-03-17T03:09:42;98288.9;;;9.06;100
17950;BME280;9100;48.700;9.316;2024-03-17T03:10:43;98284.6;;;9.06;100
17950;BME280;9100;48.700;9.316;2024-03-17T03:11:42;98291.4;;;9.07;100
17950;BME280;9100;48.700;9.316;2024-03-17T03:12:42;98292.2;;;9.08;100
17950;BME280;9100;48.700;9.316;2024-03-17T03:13:38;98292.2;;;9.08;100
17950;BME280;9100;48.700;9.316;2024-03-17T03:13:43;98292.9;;;9.08;100
17950;BME280;9100;48.700;9.316;2024-03-17T03:14:42;98293.7;;;9.09;100
17950;BME280;9100;48.700;9.316;2024-03-17T03:15:42;98294.7;;;9.08;100
17950;BME280;9100;48.700;9.316;2024-03-17T03:16:42;98288;;;9.07;100
17950;BME280;9100;48.700;9.316;2024-03-17T03:17:43;98289.8;;;9.06;100
17950;BME280;9100;48.700;9.316;2024-03-17T03:18:38;98283.2;;;9.04;100
17950;BME280;9100;48.700;9.316;2024-03-17T03:18:43;98286.6;;;9.04;100
17950;BME280;9100;48.700;9.316;2024-03-17T03:19:43;98285.6;;;9.05;100
17950;BME280;9100;48.700;9.316;2024-03-17T03:20:42;98289.9;;;9.05;100
17950;BME280;9100;48.700;9.316;2024-03-17T03:21:42;98284.2;;;9.03;100
17950;BME280;9100;48.700;9.316;2024-03-17T03:22:42;98281.5;;;9.04;100
17950;BME280;9100;48.700;9.316;2024-03-17T03:23:38;98280.7;;;9.04;100
17950;BME280;9100;48.700;9.316;2024-03-17T03:23:43;98280.7;;;9.04;100
17950;BME280;9100;48.700;9.316;2024-03-17T03:24:43;98277.9;;;9.05;100
17950;BME280;9100;48.700;9.316;2024-03-17T03:25:43;98277.09999999999;;;9.05;100
17950;BME280;9100;48.700;9.316;2024-03-17T03:26:43;98279.7;;;9.05;100
17950;BME280;9100;48.700;9.316;2024-03-17T03:27:42;98283;;;9.05;100
17950;BME280;9100;48.700;9.316;2024-03-17T03:28:38;98280.5;;;9.05;100
17950;BME280;9100;48.700;9.316;2024-03-17T03:28:43;98278.7;;;9.06;100
17950;BME280;9100;48.700;9.316;2024-03-17T03:29:43;98279.5;;;9.06;100
17950;BME280;9100;48.700;9.316;2024-03-17T03:30:43;98273.6;;;9.06;100
17950;BME280;9100;48.700;9.316;2024-03-17T03:32:43;98270.5;;;9.04;100
17950;BME280;9100;48.700;9.316;2024-03-17T03:33:38;98273.2;;;9.02;100
17950;BME280;9100;48.700;9.316;2024-03-17T03:33:43;98277.3;;;9.03;100
17950;BME280;9100;48.700;9.316;2024-03-17T03:34:43;98275.8;;;9.01;100
17950;BME280;9100;48.700;9.316;2024-03-17T03:35:43;98276.8;;;9;100
17950;BME280;9100;48.700;9.316;2024-03-17T03:36:43;98269.2;;;9;100
17950;BME280;9100;48.700;9.316;2024-03-17T03:37:43;98268.7;;;8.96;100
17950;BME280;9100;48.700;9.316;2024-03-17T03:38:38;98272.2;;;8.95;100
17950;BME280;9100;48.700;9.316;2024-03-17T03:38:42;98262.90000000001;;;8.94;100
17950;BME280;9100;48.700;9.316;2024-03-17T03:39:42;98264.70000000001;;;8.94;100
17950;BME280;9100;48.700;9.316;2024-03-17T03:40:43;98270.7;;;8.93;100
17950;BME280;9100;48.700;9.316;2024-03-17T03:41:42;98270.7;;;8.93;100
17950;BME280;9100;48.700;9.316;2024-03-17T03:42:43;98276.8;;;8.92;100
17950;BME280;9100;48.700;9.316;2024-03-17T03:43:38;98266.7;;;8.9;100
17950;BME280;9100;48.700;9.316;2024-03-17T03:43:42;98271;;;8.9;100
17950;BME280;9100;48.700;9.316;2024-03-17T03:44:42;98263.4;;;8.9;100
17950;BME280;9100;48.700;9.316;2024-03-17T03:45:43;98271.7;;;8.92;100
17950;BME280;9100;48.700;9.316;2024-03-17T03:46:43;98270.7;;;8.93;100
17950;BME280;9100;48.700;9.316;2024-03-17T03:47:43;98265;;;8.91;100
17950;BME280;9100;48.700;9.316;2024-03-17T03:48:38;98264;;;8.92;100
17950;BME280;9100;48.700;9.316;2024-03-17T03:48:43;98270.7;;;8.93;100
17950;BME280;9100;48.700;9.316;2024-03-17T03:49:42;98263.2;;;8.91;100
17950;BME280;9100;48.700;9.316;2024-03-17T03:50:42;98268.5;;;8.9;100
17950;BME280;9100;48.700;9.316;2024-03-17T03:51:42;98265.3;;;8.88;100
17950;BME280;9100;48.700;9.316;2024-03-17T03:52:43;98264.59999999999;;;8.86;100
17950;BME280;9100;48.700;9.316;2024-03-17T03:53:38;98269.1;;;8.84;100
17950;BME280;9100;48.700;9.316;2024-03-17T03:53:42;98271.6;;;8.84;100
17950;BME280;9100;48.700;9.316;2024-03-17T03:54:42;98263.3;;;8.82;100
17950;BME280;9100;48.700;9.316;2024-03-17T03:55:43;98263.5;;;8.8;100
17950;BME280;9100;48.700;9.316;2024-03-17T03:56:43;98262;;;8.78;100
17950;BME280;9100;48.700;9.316;2024-03-17T03:57:43;98263;;;8.76;100
17950;BME280;9100;48.700;9.316;2024-03-17T03:58:38;98260.7;;;8.73;100
17950;BME280;9100;48.700;9.316;2024-03-17T03:58:42;98263.3;;;8.73;100
17950;BME280;9100;48.700;9.316;2024-03-17T03:59:42;98258.2;;;8.73;100
17950;BME280;9100;48.700;9.316;2024-03-17T04:00:43;98256.9;;;8.69;100
17950;BME280;9100;48.700;9.316;2024-03-17T04:01:43;98259.6;;;8.68;100
17950;BME280;9100;48.700;9.316;2024-03-17T04:02:43;98249.7;;;8.65;100
17950;BME280;9100;48.700;9.316;2024-03-17T04:03:38;98258.6;;;8.61;100
17950;BME280;9100;48.700;9.316;2024-03-17T04:03:43;98255.2;;;8.6;100
17950;BME280;9100;48.700;9.316;2024-03-17T04:04:43;98255.4;;;8.59;100
17950;BME280;9100;48.700;9.316;2024-03-17T04:05:43;98249.8;;;8.55;100
17950;BME280;9100;48.700;9.316;2024-03-17T04:06:43;98255.9;;;8.54;100
17950;BME280;9100;48.700;9.316;2024-03-17T04:07:43;98255.2;;;8.52;100
17950;BME280;9100;48.700;9.316;2024-03-17T04:08:38;98258.1;;;8.49;100
17950;BME280;9100;48.700;9.316;2024-03-17T04:08:43;98254.7;;;8.49;100
17950;BME280;9100;48.700;9.316;2024-03-17T04:09:43;98259;;;8.48;100
17950;BME280;9100;48.700;9.316;2024-03-17T04:10:43;98263.3;;;8.48;100
17950;BME280;9100;48.700;9.316;2024-03-17T04:11:43;98255;;;8.46;100
17950;BME280;9100;48.700;9.316;2024-03-17T04:12:43;98252.59999999999;;;8.44;100
17950;BME280;9100;48.700;9.316;2024-03-17T04:13:38;98254.4;;;8.44;100
17950;BME280;9100;48.700;9.316;2024-03-17T04:13:43;98246.7;;;8.44;100
17950;BME280;9100;48.700;9.316;2024-03-17T04:14:42;98253.4;;;8.45;100
17950;BME280;9100;48.700;9.316;2024-03-17T04:15:42;98248.29999999999;;;8.45;100
17950;BME280;9100;48.700;9.316;2024-03-17T04:16:43;98253.4;;;8.45;100
17950;BME280;9100;48.700;9.316;2024-03-17T04:17:42;98242.4;;;8.44;100
17950;BME280;9100;48.700;9.316;2024-03-17T04:18:38;98247.7;;;8.43;100
17950;BME280;9100;48.700;9.316;2024-03-17T04:18:42;98252.59999999999;;;8.44;100
17950;BME280;9100;48.700;9.316;2024-03-17T04:19:42;98249.1;;;8.45;100
17950;BME280;9100;48.700;9.316;2024-03-17T04:20:42;98246.40000000001;;;8.47;100
17950;BME280;9100;48.700;9.316;2024-03-17T04:21:43;98249;;;8.47;100
17950;BME280;9100;48.700;9.316;2024-03-17T04:22:43;98250.7;;;8.46;100
17950;BME280;9100;48.700;9.316;2024-03-17T04:23:38;98247.5;;;8.44;100
17950;BME280;9100;48.700;9.316;2024-03-17T04:23:43;98249.1;;;8.45;100
17950;BME280;9100;48.700;9.316;2024-03-17T04:24:42;98255.8;;;8.46;100
17950;BME280;9100;48.700;9.316;2024-03-17T04:25:43;98249.1;;;8.45;100
17950;BME280;9100;48.700;9.316;2024-03-17T04:26:43;98248.2;;;8.46;100
17950;BME280;9100;48.700;9.316;2024-03-17T04:27:43;98234.7;;;8.36;100
17950;BME280;9100;48.700;9.316;2024-03-17T04:28:38;98245.1;;;8.43;100
17950;BME280;9100;48.700;9.316;2024-03-17T04:28:42;98251;;;8.43;100
17950;BME280;9100;48.700;9.316;2024-03-17T04:29:43;98254.5;;;8.42;100
17950;BME280;9100;48.700;9.316;2024-03-17T04:30:42;98250.40000000001;;;8.41;100
17950;BME280;9100;48.700;9.316;2024-03-17T04:31:43;98252.09999999999;;;8.41;100
17950;BME280;9100;48.700;9.316;2024-03-17T04:32:43;98246.2;;;8.4;100
17950;BME280;9100;48.700;9.316;2024-03-17T04:33:38;98250.5;;;8.4;100
17950;BME280;9100;48.700;9.316;2024-03-17T04:33:43;98250.5;;;8.4;100
17950;BME280;9100;48.700;9.316;2024-03-17T04:34:43;98252.09999999999;;;8.41;100
17950;BME280;9100;48.700;9.316;2024-03-17T04:35:43;98246.2;;;8.4;100
17950;BME280;9100;48.700;9.316;2024-03-17T04:36:43;98248;;;8.4;100
17950;BME280;9100;48.700;9.316;2024-03-17T04:37:43;98252.3;;;8.39;100
17950;BME280;9100;48.700;9.316;2024-03-17T04:38:38;98244.8;;;8.38;100
17950;BME280;9100;48.700;9.316;2024-03-17T04:38:43;98242.2;;;8.38;100